createdAt,value
2018-06-29T00:00:27.662Z,21.20
2018-06-29T00:02:56.478Z,21.20
2018-06-29T00:05:25.490Z,21.10
2018-06-29T00:07:54.339Z,21.10
2018-06-29T00:10:25.942Z,21.10
2018-06-29T00:12:55.049Z,21.10
2018-06-29T00:15:24.758Z,21.00
2018-06-29T00:17:53.564Z,21.00
2018-06-29T00:20:22.366Z,21.00
2018-06-29T00:22:51.165Z,21.10
2018-06-29T00:25:19.990Z,21.10
2018-06-29T00:27:48.835Z,21.10
2018-06-29T00:30:17.657Z,21.10
2018-06-29T00:32:46.476Z,21.00
2018-06-29T00:35:15.273Z,21.10
2018-06-29T00:37:43.745Z,21.00
2018-06-29T00:40:12.581Z,21.10
2018-06-29T00:42:41.381Z,21.00
2018-06-29T00:45:10.170Z,21.00
2018-06-29T00:47:38.971Z,20.90
2018-06-29T00:50:07.765Z,20.90
2018-06-29T00:52:36.231Z,20.90
2018-06-29T00:55:04.724Z,20.90
2018-06-29T00:57:33.187Z,20.90
2018-06-29T01:00:04.659Z,20.80
2018-06-29T01:02:33.801Z,20.90
2018-06-29T01:05:02.302Z,20.90
2018-06-29T01:07:31.093Z,20.90
2018-06-29T01:10:00.256Z,20.90
2018-06-29T01:12:29.043Z,20.80
2018-06-29T01:14:58.172Z,20.80
2018-06-29T01:17:26.634Z,20.80
2018-06-29T01:19:55.113Z,20.70
2018-06-29T01:22:23.908Z,20.70
2018-06-29T01:24:52.429Z,20.70
2018-06-29T01:27:21.258Z,20.60
2018-06-29T01:29:50.061Z,20.70
2018-06-29T01:32:18.865Z,20.80
2018-06-29T01:34:47.335Z,20.70
2018-06-29T01:37:16.158Z,20.80
2018-06-29T01:39:44.631Z,20.70
2018-06-29T01:42:13.775Z,20.70
2018-06-29T01:44:42.578Z,20.80
2018-06-29T01:49:40.308Z,20.80
2018-06-29T01:52:09.165Z,20.70
2018-06-29T01:54:37.776Z,20.70
2018-06-29T01:57:06.280Z,20.70
2018-06-29T01:59:35.075Z,20.60
2018-06-29T02:02:03.857Z,20.60
2018-06-29T02:04:32.320Z,20.60
2018-06-29T02:07:01.140Z,20.50
2018-06-29T02:09:30.332Z,20.50
2018-06-29T02:11:59.164Z,20.50
2018-06-29T02:14:27.641Z,20.50
2018-06-29T02:16:56.521Z,20.50
2018-06-29T02:19:25.685Z,20.50
2018-06-29T02:21:54.259Z,20.40
2018-06-29T02:24:23.939Z,20.30
2018-06-29T02:26:52.772Z,20.30
2018-06-29T02:29:21.233Z,20.20
2018-06-29T02:31:50.029Z,20.20
2018-06-29T02:34:18.833Z,20.20
2018-06-29T02:36:47.307Z,20.20
2018-06-29T02:39:15.799Z,20.20
2018-06-29T02:41:44.929Z,20.20
2018-06-29T02:44:14.061Z,20.30
2018-06-29T02:46:42.850Z,20.30
2018-06-29T02:49:11.341Z,20.30
2018-06-29T02:51:39.822Z,20.30
2018-06-29T02:54:08.289Z,20.20
2018-06-29T02:56:37.432Z,20.20
2018-06-29T02:59:05.897Z,20.20
2018-06-29T03:01:34.705Z,20.10
2018-06-29T03:04:03.157Z,20.10
2018-06-29T03:06:31.948Z,20.10
2018-06-29T03:09:00.432Z,20.10
2018-06-29T03:11:29.242Z,20.00
2018-06-29T03:13:58.065Z,20.00
2018-06-29T03:16:26.540Z,19.90
2018-06-29T03:18:55.007Z,20.00
2018-06-29T03:21:23.480Z,20.00
2018-06-29T03:23:52.299Z,19.90
2018-06-29T03:26:21.129Z,19.90
2018-06-29T03:28:49.946Z,19.90
2018-06-29T03:31:18.418Z,19.90
2018-06-29T03:33:47.237Z,19.90
2018-06-29T03:36:16.041Z,19.90
2018-06-29T03:38:44.902Z,19.80
2018-06-29T03:41:13.377Z,19.80
2018-06-29T03:43:41.836Z,19.80
2018-06-29T03:46:10.635Z,19.80
2018-06-29T03:48:48.617Z,19.70
2018-06-29T03:51:17.177Z,19.60
2018-06-29T03:56:43.389Z,19.70
2018-06-29T03:59:12.239Z,19.60
2018-06-29T04:01:40.736Z,19.60
2018-06-29T04:04:09.229Z,19.60
2018-06-29T04:06:38.369Z,19.60
2018-06-29T04:18:45.338Z,19.60
2018-06-29T04:21:14.835Z,19.60
2018-06-29T04:23:43.319Z,19.50
2018-06-29T04:26:11.829Z,19.50
2018-06-29T04:28:40.312Z,19.50
2018-06-29T04:31:09.157Z,19.60
2018-06-29T04:33:37.944Z,19.70
2018-06-29T04:36:06.777Z,19.70
2018-06-29T04:38:36.277Z,19.70
2018-06-29T04:41:05.168Z,19.70
2018-06-29T04:43:33.660Z,19.70
2018-06-29T04:46:02.476Z,19.70
2018-06-29T04:48:30.981Z,19.70
2018-06-29T04:50:59.646Z,19.90
2018-06-29T04:53:28.187Z,19.90
2018-06-29T04:55:56.988Z,19.90
2018-06-29T04:58:25.458Z,19.90
2018-06-29T05:00:54.292Z,19.90
2018-06-29T05:03:23.241Z,19.90
2018-06-29T05:05:52.077Z,20.00
2018-06-29T05:08:20.905Z,20.10
2018-06-29T05:10:49.723Z,20.20
2018-06-29T05:13:18.204Z,20.20
2018-06-29T05:15:47.058Z,20.30
2018-06-29T05:18:15.877Z,20.20
2018-06-29T05:20:44.351Z,20.20
2018-06-29T05:23:13.192Z,20.20
2018-06-29T05:25:41.673Z,20.20
2018-06-29T05:28:11.868Z,20.20
2018-06-29T05:30:41.026Z,20.30
2018-06-29T05:33:09.505Z,20.30
2018-06-29T05:45:22.607Z,20.30
2018-06-29T05:47:51.450Z,20.40
2018-06-29T05:56:50.975Z,20.40
2018-06-29T06:02:13.515Z,20.60
2018-06-29T06:04:42.527Z,20.60
2018-06-29T06:07:11.164Z,20.70
2018-06-29T06:09:39.662Z,20.80
2018-06-29T06:12:08.618Z,20.90
2018-06-29T06:14:37.092Z,20.90
2018-06-29T06:17:05.693Z,21.00
2018-06-29T06:19:45.567Z,21.10
2018-06-29T06:22:14.075Z,21.10
2018-06-29T06:24:43.232Z,21.10
2018-06-29T06:27:13.129Z,21.10
2018-06-29T06:29:42.298Z,21.10
2018-06-29T06:32:11.127Z,21.20
2018-06-29T06:34:39.601Z,21.10
2018-06-29T06:37:08.088Z,21.30
2018-06-29T06:39:36.610Z,21.40
2018-06-29T06:42:05.105Z,21.30
2018-06-29T06:44:34.232Z,21.30
2018-06-29T06:47:03.136Z,21.50
2018-06-29T06:49:31.812Z,21.60
2018-06-29T06:52:00.628Z,21.70
2018-06-29T06:54:29.469Z,21.80
2018-06-29T06:56:58.283Z,21.70
2018-06-29T06:59:26.911Z,21.80
2018-06-29T07:01:55.865Z,21.90
2018-06-29T07:04:24.353Z,21.90
2018-06-29T07:06:54.109Z,21.90
2018-06-29T07:09:22.919Z,22.00
2018-06-29T07:11:51.716Z,22.10
2018-06-29T07:14:20.524Z,22.20
2018-06-29T07:16:49.012Z,22.30
2018-06-29T07:19:17.834Z,22.30
2018-06-29T07:21:46.671Z,22.30
2018-06-29T07:24:15.476Z,22.40
2018-06-29T07:26:44.617Z,22.60
2018-06-29T07:29:13.130Z,22.60
2018-06-29T07:31:41.599Z,22.70
2018-06-29T07:34:10.401Z,22.80
2018-06-29T07:36:39.232Z,22.90
2018-06-29T07:39:09.128Z,23.00
2018-06-29T07:41:37.690Z,23.10
2018-06-29T07:44:06.841Z,23.20
2018-06-29T07:46:35.748Z,23.30
2018-06-29T07:49:04.685Z,23.40
2018-06-29T07:51:33.480Z,23.40
2018-06-29T07:54:01.953Z,23.70
2018-06-29T07:56:31.096Z,23.60
2018-06-29T07:58:59.892Z,23.70
2018-06-29T08:01:28.373Z,23.80
2018-06-29T08:03:56.900Z,23.80
2018-06-29T08:06:25.565Z,23.80
2018-06-29T08:08:54.017Z,23.90
2018-06-29T08:11:22.960Z,24.00
2018-06-29T08:13:51.820Z,24.00
2018-06-29T08:16:20.289Z,24.10
2018-06-29T08:18:49.091Z,24.30
2018-06-29T08:21:49.069Z,24.50
2018-06-29T08:24:17.946Z,24.60
2018-06-29T08:26:47.827Z,24.80
2018-06-29T08:29:16.354Z,24.80
2018-06-29T08:31:44.820Z,24.90
2018-06-29T08:34:13.280Z,25.00
2018-06-29T08:36:41.820Z,25.30
2018-06-29T08:39:10.656Z,25.40
2018-06-29T08:41:39.460Z,25.50
2018-06-29T08:46:36.553Z,25.50
2018-06-29T08:49:05.514Z,25.60
2018-06-29T08:51:34.400Z,25.80
2018-06-29T08:54:03.140Z,25.90
2018-06-29T08:56:31.683Z,25.70
2018-06-29T08:59:00.255Z,25.90
2018-06-29T09:01:28.457Z,25.90
2018-06-29T09:03:57.055Z,26.20
2018-06-29T09:06:25.609Z,26.20
2018-06-29T09:08:53.820Z,26.50
2018-06-29T09:11:22.048Z,26.60
2018-06-29T09:13:50.248Z,26.50
2018-06-29T09:16:18.797Z,26.60
2018-06-29T09:18:47.361Z,26.70
2018-06-29T09:21:15.574Z,26.80
2018-06-29T09:23:44.470Z,27.10
2018-06-29T09:26:13.040Z,27.20
2018-06-29T09:28:41.960Z,27.30
2018-06-29T09:31:10.501Z,27.30
2018-06-29T09:33:39.050Z,27.30
2018-06-29T09:36:07.604Z,27.30
2018-06-29T09:38:36.187Z,27.50
2018-06-29T09:41:04.715Z,27.70
2018-06-29T09:43:32.936Z,27.60
2018-06-29T09:46:01.464Z,27.70
2018-06-29T09:48:30.010Z,27.80
2018-06-29T09:50:58.901Z,27.70
2018-06-29T09:53:27.115Z,27.80
2018-06-29T09:55:55.341Z,27.80
2018-06-29T09:58:23.909Z,27.90
2018-06-29T10:00:55.414Z,28.10
2018-06-29T10:03:20.867Z,28.20
2018-06-29T10:05:49.092Z,28.30
2018-06-29T10:08:17.301Z,28.50
2018-06-29T10:10:45.522Z,28.60
2018-06-29T10:13:14.386Z,28.60
2018-06-29T10:15:42.954Z,28.60
2018-06-29T10:18:11.520Z,28.80
2018-06-29T10:20:40.078Z,28.70
2018-06-29T10:23:08.992Z,28.90
2018-06-29T10:25:37.885Z,29.10
2018-06-29T10:28:06.444Z,29.20
2018-06-29T10:30:34.828Z,29.00
2018-06-29T10:33:03.038Z,29.00
2018-06-29T10:35:31.580Z,28.90
2018-06-29T10:37:59.780Z,29.00
2018-06-29T10:40:28.313Z,29.10
2018-06-29T10:42:56.581Z,29.40
2018-06-29T10:45:24.809Z,29.40
2018-06-29T10:47:53.372Z,29.30
2018-06-29T10:50:21.594Z,29.30
2018-06-29T10:52:49.840Z,29.40
2018-06-29T10:55:18.246Z,29.50
2018-06-29T10:57:46.595Z,29.70
2018-06-29T11:00:15.489Z,29.50
2018-06-29T11:02:44.072Z,29.50
2018-06-29T11:05:12.740Z,29.40
2018-06-29T11:07:41.439Z,29.50
2018-06-29T11:10:09.985Z,29.80
2018-06-29T11:12:38.192Z,29.90
2018-06-29T11:15:06.406Z,30.00
2018-06-29T11:17:34.616Z,30.10
2018-06-29T11:20:03.181Z,30.20
2018-06-29T11:22:31.826Z,30.20
2018-06-29T11:25:00.576Z,30.40
2018-06-29T11:27:28.797Z,30.60
2018-06-29T11:29:57.967Z,30.60
2018-06-29T11:32:26.884Z,30.40
2018-06-29T11:34:56.120Z,30.30
2018-06-29T11:37:24.361Z,30.50
2018-06-29T11:39:52.904Z,30.40
2018-06-29T11:42:21.138Z,30.40
2018-06-29T11:44:49.358Z,30.40
2018-06-29T11:47:17.943Z,30.70
2018-06-29T11:49:46.184Z,30.60
2018-06-29T11:52:14.727Z,30.70
2018-06-29T11:54:42.941Z,30.70
2018-06-29T11:57:11.178Z,30.80
2018-06-29T11:59:39.740Z,31.00
2018-06-29T12:02:07.953Z,31.20
2018-06-29T12:04:36.168Z,31.30
2018-06-29T12:07:04.447Z,31.50
2018-06-29T12:09:33.176Z,31.50
2018-06-29T12:12:01.412Z,31.70
2018-06-29T12:14:29.622Z,31.50
2018-06-29T12:16:58.168Z,31.60
2018-06-29T12:19:26.760Z,31.70
2018-06-29T12:21:55.332Z,31.80
2018-06-29T12:24:23.898Z,31.70
2018-06-29T12:26:52.780Z,31.80
2018-06-29T12:29:21.333Z,31.90
2018-06-29T12:34:17.678Z,32.00
2018-06-29T12:39:14.204Z,32.10
2018-06-29T12:41:42.787Z,31.90
2018-06-29T12:44:11.021Z,32.10
2018-06-29T12:46:39.236Z,32.20
2018-06-29T12:49:07.777Z,32.10
2018-06-29T12:51:36.062Z,32.20
2018-06-29T12:54:04.789Z,31.90
2018-06-29T12:56:33.742Z,31.70
2018-06-29T12:59:02.292Z,31.40
2018-06-29T13:03:58.986Z,31.80
2018-06-29T13:06:27.260Z,32.20
2018-06-29T13:08:55.477Z,32.50
2018-06-29T13:11:23.884Z,32.50
2018-06-29T13:13:52.099Z,32.40
2018-06-29T13:16:20.713Z,32.20
2018-06-29T13:18:49.286Z,32.10
2018-06-29T13:21:17.526Z,32.20
2018-06-29T13:23:46.145Z,32.20
2018-06-29T13:26:14.949Z,32.50
2018-06-29T13:28:43.882Z,32.90
2018-06-29T13:33:40.369Z,33.00
2018-06-29T13:36:09.144Z,33.00
2018-06-29T13:38:37.486Z,33.20
2018-06-29T13:41:06.090Z,33.50
2018-06-29T13:43:34.708Z,33.60
2018-06-29T13:46:03.292Z,33.60
2018-06-29T13:48:31.501Z,33.40
2018-06-29T13:50:59.702Z,33.50
2018-06-29T13:53:28.641Z,33.60
2018-06-29T13:55:57.233Z,33.50
2018-06-29T13:58:25.808Z,33.30
2018-06-29T14:00:54.699Z,33.70
2018-06-29T14:03:23.278Z,33.60
2018-06-29T14:05:52.194Z,33.60
2018-06-29T14:08:20.779Z,33.70
2018-06-29T14:10:49.030Z,33.50
2018-06-29T14:13:18.125Z,33.70
2018-06-29T14:15:47.335Z,33.70
2018-06-29T14:18:16.709Z,33.60
2018-06-29T14:20:45.248Z,33.70
2018-06-29T14:23:13.457Z,33.80
2018-06-29T14:25:41.669Z,33.90
2018-06-29T14:28:09.878Z,33.60
2018-06-29T14:30:38.202Z,33.20
2018-06-29T14:33:06.760Z,33.10
2018-06-29T14:35:35.325Z,32.90
2018-06-29T14:38:03.885Z,32.70
2018-06-29T14:40:32.461Z,32.80
2018-06-29T14:43:00.687Z,32.90
2018-06-29T14:45:29.263Z,32.90
2018-06-29T14:47:58.165Z,32.90
2018-06-29T14:50:27.404Z,32.50
2018-06-29T14:52:55.956Z,32.50
2018-06-29T14:55:24.193Z,32.50
2018-06-29T14:57:52.847Z,32.50
2018-06-29T15:00:21.705Z,32.00
2018-06-29T15:02:50.634Z,31.90
2018-06-29T15:05:19.313Z,31.80
2018-06-29T15:07:48.206Z,31.80
2018-06-29T15:10:17.107Z,31.80
2018-06-29T15:12:45.862Z,31.90
2018-06-29T15:15:14.390Z,31.80
2018-06-29T15:17:44.148Z,31.70
2018-06-29T15:20:13.092Z,31.60
2018-06-29T15:22:41.316Z,31.40
2018-06-29T15:25:09.940Z,31.50
2018-06-29T15:27:38.521Z,31.60
2018-06-29T15:30:07.444Z,31.40
2018-06-29T15:32:36.024Z,31.50
2018-06-29T15:35:04.608Z,31.60
2018-06-29T15:37:33.516Z,31.50
2018-06-29T15:40:01.744Z,31.40
2018-06-29T15:42:30.609Z,31.20
2018-06-29T15:44:59.157Z,31.20
2018-06-29T15:47:27.749Z,31.20
2018-06-29T15:49:55.949Z,31.30
2018-06-29T15:52:24.512Z,31.40
2018-06-29T15:54:53.072Z,31.30
2018-06-29T15:57:21.284Z,31.40
2018-06-29T15:59:49.824Z,31.30
2018-06-29T16:02:18.068Z,31.10
2018-06-29T16:04:46.289Z,31.10
2018-06-29T16:07:15.760Z,31.00
2018-06-29T16:09:44.548Z,30.80
2018-06-29T16:12:12.866Z,30.70
2018-06-29T16:14:41.303Z,30.70
2018-06-29T16:17:09.909Z,30.70
2018-06-29T16:19:38.475Z,30.60
2018-06-29T16:22:07.441Z,30.70
2018-06-29T16:24:37.121Z,30.70
2018-06-29T16:27:06.021Z,30.70
2018-06-29T16:29:34.667Z,30.80
2018-06-29T16:32:03.665Z,30.80
2018-06-29T16:34:32.234Z,30.70
2018-06-29T16:37:00.796Z,30.70
2018-06-29T16:42:33.833Z,30.60
2018-06-29T16:45:02.386Z,30.40
2018-06-29T16:47:31.260Z,30.40
2018-06-29T16:50:00.137Z,30.40
2018-06-29T16:52:28.340Z,30.40
2018-06-29T16:54:57.209Z,30.50
2018-06-29T16:57:25.770Z,30.40
2018-06-29T16:59:54.813Z,30.30
2018-06-29T17:02:24.036Z,30.40
2018-06-29T17:04:52.602Z,30.40
2018-06-29T17:08:29.981Z,30.30
2018-06-29T17:10:58.550Z,30.40
2018-06-29T17:13:26.793Z,30.30
2018-06-29T17:15:55.223Z,30.20
2018-06-29T17:18:23.781Z,30.10
2018-06-29T17:20:53.289Z,30.20
2018-06-29T17:23:27.120Z,30.00
2018-06-29T17:26:00.873Z,30.00
2018-06-29T17:28:32.967Z,30.00
2018-06-29T17:31:14.778Z,30.00
2018-06-29T17:33:58.907Z,29.90
2018-06-29T17:36:36.958Z,29.80
2018-06-29T17:40:17.193Z,29.70
2018-06-29T17:45:53.728Z,29.50
2018-06-29T17:48:21.987Z,29.60
2018-06-29T17:50:51.244Z,29.40
2018-06-29T17:53:20.132Z,29.30
2018-06-29T17:55:48.757Z,29.20
2018-06-29T17:58:17.898Z,29.20
2018-06-29T18:00:46.355Z,29.20
2018-06-29T18:03:15.037Z,29.20
2018-06-29T18:05:43.396Z,29.10
2018-06-29T18:08:12.051Z,29.10
2018-06-29T18:10:40.361Z,29.10
2018-06-29T18:13:09.080Z,29.10
2018-06-29T18:15:37.442Z,29.10
2018-06-29T18:18:07.045Z,29.00
2018-06-29T18:20:35.294Z,29.10
2018-06-29T18:23:03.522Z,29.00
2018-06-29T18:25:33.281Z,28.90
2018-06-29T18:28:02.505Z,28.90
2018-06-29T18:30:31.124Z,28.70
2018-06-29T18:32:59.732Z,28.70
2018-06-29T18:35:28.149Z,28.70
2018-06-29T18:37:58.025Z,28.70
2018-06-29T18:40:26.921Z,28.60
2018-06-29T18:42:55.157Z,28.60
2018-06-29T18:45:23.392Z,28.60
2018-06-29T18:47:52.049Z,28.40
2018-06-29T18:50:21.174Z,28.20
2018-06-29T18:53:01.914Z,28.20
2018-06-29T18:55:31.825Z,28.10
2018-06-29T19:00:29.761Z,28.00
2018-06-29T19:02:58.726Z,27.90
2018-06-29T19:05:27.301Z,27.90
2018-06-29T19:07:55.522Z,27.80
2018-06-29T19:10:23.813Z,27.80
2018-06-29T19:12:52.393Z,27.70
2018-06-29T19:15:20.699Z,27.60
2018-06-29T19:17:49.248Z,27.50
2018-06-29T19:20:17.833Z,27.50
2018-06-29T19:22:47.036Z,27.30
2018-06-29T19:25:15.578Z,27.30
2018-06-29T19:27:44.343Z,27.30
2018-06-29T19:30:12.538Z,27.30
2018-06-29T19:32:41.081Z,27.30
2018-06-29T19:35:11.007Z,27.10
2018-06-29T19:37:39.986Z,26.90
2018-06-29T19:40:08.365Z,26.80
2018-06-29T19:42:36.585Z,26.60
2018-06-29T19:45:04.928Z,26.50
2018-06-29T19:50:01.633Z,26.40
2018-06-29T19:52:29.861Z,26.40
2018-06-29T19:54:58.078Z,26.20
2018-06-29T19:57:27.212Z,26.10
2018-06-29T19:59:55.469Z,26.00
2018-06-29T20:02:25.872Z,25.80
2018-06-29T20:04:55.321Z,25.70
2018-06-29T20:07:23.701Z,25.70
2018-06-29T20:09:51.941Z,25.60
2018-06-29T20:12:20.596Z,25.60
2018-06-29T20:14:48.799Z,25.60
2018-06-29T20:17:17.328Z,25.30
2018-06-29T20:19:46.526Z,25.10
2018-06-29T20:22:15.084Z,25.10
2018-06-29T20:24:43.637Z,24.90
2018-06-29T20:27:12.197Z,24.80
2018-06-29T20:29:41.113Z,24.90
2018-06-29T20:32:12.812Z,24.80
2018-06-29T20:34:41.414Z,24.70
2018-06-29T20:37:09.981Z,24.60
2018-06-29T20:39:38.241Z,24.60
2018-06-29T20:42:06.900Z,24.50
2018-06-29T20:44:35.770Z,24.50
2018-06-29T20:47:04.345Z,24.30
2018-06-29T20:49:32.963Z,24.50
2018-06-29T20:52:01.325Z,24.40
2018-06-29T20:54:30.165Z,24.20
2018-06-29T20:56:58.714Z,24.20
2018-06-29T20:59:27.264Z,24.00
2018-06-29T21:01:55.733Z,24.00
2018-06-29T21:04:24.865Z,24.00
2018-06-29T21:08:18.185Z,23.90
2018-06-29T21:10:46.695Z,23.80
2018-06-29T21:13:15.169Z,23.80
2018-06-29T21:15:45.769Z,23.70
2018-06-29T21:18:14.585Z,23.60
2018-06-29T21:20:43.088Z,23.70
2018-06-29T21:23:12.355Z,23.60
2018-06-29T21:25:41.488Z,23.50
2018-06-29T21:28:11.315Z,23.40
2018-06-29T21:30:41.902Z,23.40
2018-06-29T21:33:15.025Z,23.40
2018-06-29T21:35:46.086Z,23.30
2018-06-29T21:38:16.516Z,23.20
2018-06-29T21:40:50.721Z,23.20
2018-06-29T21:43:20.369Z,22.90
2018-06-29T21:45:49.345Z,22.80
2018-06-29T21:48:20.060Z,22.90
2018-06-29T21:50:49.230Z,22.80
2018-06-29T21:53:17.826Z,22.70
2018-06-29T21:55:47.027Z,22.60
2018-06-29T21:58:16.618Z,22.60
2018-06-29T22:00:59.685Z,22.50
2018-06-29T22:03:42.288Z,22.40
2018-06-29T22:09:01.935Z,22.40
2018-06-29T22:11:41.327Z,22.40
2018-06-29T22:14:16.644Z,22.30
2018-06-29T22:16:49.155Z,22.20
2018-06-29T22:19:24.720Z,22.10
2018-06-29T22:21:56.458Z,22.00
2018-06-29T22:24:26.636Z,22.10
2018-06-29T22:26:55.284Z,22.00
2018-06-29T22:29:24.784Z,21.90
2018-06-29T22:31:55.904Z,21.90
2018-06-29T22:34:29.990Z,21.90
2018-06-29T22:37:01.098Z,21.90
2018-06-29T22:39:35.700Z,21.80
2018-06-29T22:42:19.029Z,21.50
2018-06-29T22:44:57.677Z,21.50
2018-06-29T22:47:27.714Z,21.50
2018-06-29T22:52:32.031Z,21.60
2018-06-29T22:55:03.741Z,21.40
2018-06-29T22:58:21.111Z,21.30
2018-06-29T23:01:18.699Z,21.20
2018-06-29T23:03:57.147Z,21.20
2018-06-29T23:06:26.871Z,21.10
2018-06-29T23:08:56.213Z,21.20
2018-06-29T23:11:25.989Z,21.10
2018-06-29T23:13:54.849Z,21.00
2018-06-29T23:16:26.896Z,21.00
2018-06-29T23:18:58.097Z,21.10
2018-06-29T23:21:27.684Z,20.90
2018-06-29T23:24:01.274Z,20.90
2018-06-29T23:26:33.470Z,20.80
2018-06-29T23:29:08.052Z,20.80
2018-06-29T23:32:12.202Z,20.70
2018-06-29T23:34:56.849Z,20.70
